createdAt,value
2022-09-30T00:00:32.840Z,5.00
2022-09-30T00:03:18.464Z,5.00
2022-09-30T00:06:08.622Z,5.20
2022-09-30T00:08:55.853Z,5.27
2022-09-30T00:11:42.625Z,5.40
2022-09-30T00:14:28.579Z,5.27
2022-09-30T00:17:14.232Z,4.83
2022-09-30T00:19:59.802Z,5.10
2022-09-30T00:22:45.304Z,4.47
2022-09-30T00:25:30.874Z,4.93
2022-09-30T00:28:17.065Z,4.90
2022-09-30T00:31:07.257Z,4.90
2022-09-30T00:34:08.478Z,5.30
2022-09-30T00:36:55.842Z,5.33
2022-09-30T00:39:41.759Z,6.00
2022-09-30T00:42:30.691Z,4.97
2022-09-30T00:45:18.127Z,5.20
2022-09-30T00:48:12.160Z,5.03
2022-09-30T00:50:58.444Z,5.17
2022-09-30T00:53:56.624Z,5.63
2022-09-30T00:56:46.283Z,6.23
2022-09-30T00:59:43.169Z,5.27
2022-09-30T01:02:29.237Z,5.23
2022-09-30T01:05:15.068Z,5.23
2022-09-30T01:08:03.774Z,4.57
2022-09-30T01:10:49.665Z,5.30
2022-09-30T01:13:37.210Z,4.93
2022-09-30T01:16:22.696Z,5.10
2022-09-30T01:19:20.362Z,5.30
2022-09-30T01:22:44.216Z,6.27
2022-09-30T01:26:03.609Z,4.90
2022-09-30T01:29:16.935Z,4.93
2022-09-30T01:32:37.780Z,5.53
2022-09-30T01:35:42.795Z,4.37
2022-09-30T01:38:45.508Z,4.87
2022-09-30T01:42:14.560Z,4.87
2022-09-30T01:45:51.138Z,4.83
2022-09-30T01:49:10.147Z,4.70
2022-09-30T01:51:59.182Z,5.50
2022-09-30T01:54:59.804Z,4.67
2022-09-30T01:57:48.343Z,4.57
2022-09-30T02:00:38.621Z,5.20
2022-09-30T02:03:33.921Z,5.07
2022-09-30T02:06:24.608Z,4.60
2022-09-30T02:09:27.057Z,4.27
2022-09-30T02:12:18.441Z,4.37
2022-09-30T02:15:10.980Z,5.03
2022-09-30T02:18:04.799Z,4.63
2022-09-30T02:20:55.594Z,4.67
2022-09-30T02:23:46.008Z,4.47
2022-09-30T02:26:38.140Z,4.47
2022-09-30T02:29:30.455Z,5.27
2022-09-30T02:32:30.604Z,4.13
2022-09-30T02:35:57.972Z,4.37
2022-09-30T02:38:49.043Z,4.80
2022-09-30T02:41:40.604Z,4.67
2022-09-30T02:44:26.721Z,4.50
2022-09-30T02:47:31.295Z,5.73
2022-09-30T02:50:27.075Z,4.43
2022-09-30T02:53:35.868Z,4.30
2022-09-30T02:56:46.110Z,4.50
2022-09-30T02:59:31.817Z,5.00
2022-09-30T03:02:17.940Z,4.63
2022-09-30T03:05:03.932Z,4.77
2022-09-30T03:07:49.727Z,4.70
2022-09-30T03:10:35.345Z,4.40
2022-09-30T03:13:39.121Z,4.33
2022-09-30T03:16:48.999Z,4.50
2022-09-30T03:19:45.920Z,4.60
2022-09-30T03:22:52.585Z,4.50
2022-09-30T03:25:59.002Z,4.50
2022-09-30T03:29:02.043Z,4.90
2022-09-30T03:32:12.583Z,4.97
2022-09-30T03:35:16.102Z,4.40
2022-09-30T03:38:27.243Z,4.47
2022-09-30T03:41:15.674Z,4.90
2022-09-30T03:44:09.945Z,4.63
2022-09-30T03:47:01.306Z,4.10
2022-09-30T03:49:51.078Z,4.73
2022-09-30T03:52:37.496Z,4.53
2022-09-30T03:55:24.405Z,4.70
2022-09-30T03:58:10.304Z,5.57
2022-09-30T04:00:57.218Z,4.40
2022-09-30T04:03:43.201Z,5.00
2022-09-30T04:06:28.737Z,5.23
2022-09-30T04:09:14.405Z,4.67
2022-09-30T04:12:00.612Z,4.67
2022-09-30T04:14:46.009Z,4.57
2022-09-30T04:17:32.006Z,4.67
2022-09-30T04:20:17.659Z,4.87
2022-09-30T04:23:03.866Z,4.53
2022-09-30T04:25:54.219Z,4.80
2022-09-30T04:28:39.851Z,4.20
2022-09-30T04:31:25.487Z,5.23
2022-09-30T04:34:11.955Z,4.50
2022-09-30T04:36:57.817Z,5.07
2022-09-30T04:39:44.248Z,5.30
2022-09-30T04:42:29.694Z,4.73
2022-09-30T04:45:15.508Z,4.53
2022-09-30T04:48:01.357Z,4.60
2022-09-30T04:50:47.275Z,4.57
2022-09-30T04:53:32.757Z,5.17
2022-09-30T04:56:18.380Z,4.90
2022-09-30T04:59:04.149Z,5.83
2022-09-30T05:01:49.607Z,5.27
2022-09-30T05:04:35.104Z,5.33
2022-09-30T05:07:20.673Z,4.90
2022-09-30T05:10:08.166Z,5.50
2022-09-30T05:12:54.152Z,5.83
2022-09-30T05:15:39.726Z,4.03
2022-09-30T05:18:28.466Z,3.63
2022-09-30T05:21:16.895Z,6.13
2022-09-30T05:24:03.288Z,3.33
2022-09-30T05:26:49.175Z,4.73
2022-09-30T05:29:35.070Z,11.07
2022-09-30T05:32:21.382Z,6.23
2022-09-30T05:35:07.830Z,6.90
2022-09-30T05:37:53.309Z,9.20
2022-09-30T05:40:41.936Z,8.23
2022-09-30T05:43:27.996Z,12.83
2022-09-30T05:46:15.163Z,5.70
2022-09-30T05:49:00.916Z,3.13
2022-09-30T05:51:46.771Z,6.40
2022-09-30T05:54:32.181Z,7.63
2022-09-30T05:57:17.720Z,8.23
2022-09-30T06:00:04.419Z,5.47
2022-09-30T06:02:57.392Z,9.85
2022-09-30T06:05:43.109Z,3.40
2022-09-30T06:08:28.812Z,2.65
2022-09-30T06:11:20.233Z,4.43
2022-09-30T06:14:06.073Z,3.92
2022-09-30T06:16:51.708Z,3.55
2022-09-30T06:19:37.465Z,4.90
2022-09-30T06:22:22.863Z,4.88
2022-09-30T06:25:08.606Z,4.55
2022-09-30T06:27:54.523Z,3.67
2022-09-30T06:30:40.005Z,5.50
2022-09-30T06:33:25.417Z,5.68
2022-09-30T06:36:10.950Z,5.25
2022-09-30T06:38:56.975Z,2.58
2022-09-30T06:41:44.204Z,7.15
2022-09-30T06:44:52.907Z,5.70
2022-09-30T06:47:39.542Z,2.45
2022-09-30T06:50:26.554Z,4.78
2022-09-30T06:53:13.126Z,3.30
2022-09-30T06:55:58.999Z,16.55
2022-09-30T06:58:45.626Z,7.45
2022-09-30T07:01:31.418Z,2.53
2022-09-30T07:04:16.876Z,4.63
2022-09-30T07:07:03.090Z,6.00
2022-09-30T07:09:48.642Z,6.57
2022-09-30T07:12:34.454Z,4.10
2022-09-30T07:15:23.756Z,5.70
2022-09-30T07:18:09.640Z,4.30
2022-09-30T07:20:56.482Z,8.98
2022-09-30T07:23:47.264Z,7.45
2022-09-30T07:26:33.444Z,7.63
2022-09-30T07:29:18.847Z,8.45
2022-09-30T07:32:04.572Z,9.88
2022-09-30T07:34:50.182Z,9.35
2022-09-30T07:37:36.140Z,10.00
2022-09-30T07:40:21.555Z,6.78
2022-09-30T07:43:06.827Z,12.05
2022-09-30T07:45:56.151Z,6.18
2022-09-30T07:48:47.093Z,7.78
2022-09-30T07:51:38.934Z,9.20
2022-09-30T07:54:31.685Z,6.43
2022-09-30T07:57:17.902Z,8.20
2022-09-30T08:00:22.993Z,5.00
2022-09-30T08:03:10.235Z,6.95
2022-09-30T08:05:55.854Z,8.93
2022-09-30T08:08:42.278Z,6.93
2022-09-30T08:11:28.052Z,4.88
2022-09-30T08:14:15.944Z,2.22
2022-09-30T08:17:01.673Z,5.68
2022-09-30T08:19:47.017Z,4.07
2022-09-30T08:22:32.740Z,5.55
2022-09-30T08:25:18.402Z,4.35
2022-09-30T08:28:04.034Z,6.00
2022-09-30T08:30:49.541Z,4.65
2022-09-30T08:33:35.569Z,2.88
2022-09-30T08:36:24.156Z,5.88
2022-09-30T08:39:11.007Z,5.47
2022-09-30T08:42:49.680Z,4.60
2022-09-30T08:45:42.858Z,5.45
2022-09-30T08:48:56.060Z,4.53
2022-09-30T08:51:47.647Z,7.32
2022-09-30T08:54:40.019Z,5.35
2022-09-30T08:57:32.368Z,6.03
2022-09-30T09:00:19.609Z,4.07
2022-09-30T09:03:05.138Z,5.72
2022-09-30T09:06:01.447Z,6.43
2022-09-30T09:08:53.417Z,4.70
2022-09-30T09:12:13.184Z,7.80
2022-09-30T09:15:01.715Z,2.72
2022-09-30T09:18:23.739Z,4.72
2022-09-30T09:21:21.207Z,5.75
2022-09-30T09:24:15.076Z,2.10
2022-09-30T09:27:13.190Z,4.45
2022-09-30T09:30:07.689Z,4.13
2022-09-30T09:33:00.669Z,2.30
2022-09-30T09:36:11.344Z,4.88
2022-09-30T09:39:03.001Z,3.55
2022-09-30T09:42:12.179Z,2.85
2022-09-30T09:45:15.650Z,5.07
2022-09-30T09:48:01.613Z,4.70
2022-09-30T09:51:18.283Z,4.32
2022-09-30T09:54:09.801Z,4.20
2022-09-30T09:56:55.280Z,4.20
2022-09-30T10:00:21.409Z,10.65
2022-09-30T10:03:21.273Z,6.45
2022-09-30T10:06:10.312Z,3.45
2022-09-30T10:08:57.005Z,3.95
2022-09-30T10:11:43.632Z,3.35
2022-09-30T10:14:29.446Z,3.72
2022-09-30T10:17:21.777Z,7.80
2022-09-30T10:20:28.327Z,5.63
2022-09-30T10:23:21.596Z,3.22
2022-09-30T10:26:18.561Z,4.93
2022-09-30T10:29:21.662Z,7.30
2022-09-30T10:32:09.478Z,6.72
2022-09-30T10:35:02.861Z,5.82
2022-09-30T10:37:53.683Z,6.85
2022-09-30T10:40:39.396Z,4.97
2022-09-30T10:43:39.521Z,2.75
2022-09-30T10:46:38.534Z,3.78
2022-09-30T10:49:39.421Z,7.43
2022-09-30T10:52:27.394Z,9.88
2022-09-30T10:55:19.328Z,5.28
2022-09-30T10:58:35.339Z,5.15
2022-09-30T11:01:36.116Z,5.30
2022-09-30T11:04:36.999Z,7.15
2022-09-30T11:07:41.164Z,4.82
2022-09-30T11:10:42.237Z,7.47
2022-09-30T11:13:57.084Z,4.47
2022-09-30T11:16:57.843Z,8.40
2022-09-30T11:20:07.294Z,2.47
2022-09-30T11:23:25.605Z,8.02
2022-09-30T11:26:20.217Z,4.88
2022-09-30T11:29:42.381Z,6.50
2022-09-30T11:32:46.259Z,3.50
2022-09-30T11:36:01.282Z,7.68
2022-09-30T11:38:55.619Z,4.68
2022-09-30T11:42:02.273Z,10.85
2022-09-30T11:44:58.030Z,8.45
2022-09-30T11:48:08.302Z,8.32
2022-09-30T11:51:24.819Z,6.10
2022-09-30T11:54:28.833Z,2.90
2022-09-30T11:57:30.327Z,5.68
2022-09-30T12:00:18.034Z,5.00
2022-09-30T12:03:20.151Z,9.40
2022-09-30T12:06:13.912Z,4.80
2022-09-30T12:09:08.209Z,4.55
2022-09-30T12:12:15.280Z,5.47
2022-09-30T12:15:05.803Z,4.53
2022-09-30T12:18:06.480Z,3.65
2022-09-30T12:20:59.560Z,10.77
2022-09-30T12:23:53.273Z,18.00
2022-09-30T12:26:40.814Z,7.90
2022-09-30T12:29:56.594Z,9.18
2022-09-30T12:33:07.127Z,7.50
2022-09-30T12:36:27.202Z,4.57
2022-09-30T12:39:48.021Z,6.13
2022-09-30T12:43:04.841Z,11.95
2022-09-30T12:46:02.937Z,12.68
2022-09-30T12:48:54.053Z,2.75
2022-09-30T12:51:44.940Z,15.63
2022-09-30T12:54:38.234Z,11.68
2022-09-30T12:57:31.278Z,10.75
2022-09-30T13:00:23.008Z,14.45
2022-09-30T13:03:15.889Z,10.38
2022-09-30T13:06:07.357Z,15.73
2022-09-30T13:09:07.929Z,12.80
2022-09-30T13:11:59.391Z,8.52
2022-09-30T13:14:45.293Z,21.13
2022-09-30T13:17:31.101Z,10.80
2022-09-30T13:20:56.526Z,15.27
2022-09-30T13:23:44.609Z,15.90
2022-09-30T13:26:33.832Z,18.17
2022-09-30T13:29:19.903Z,31.60
2022-09-30T13:32:07.054Z,22.92
2022-09-30T13:34:57.294Z,20.88
2022-09-30T13:37:43.111Z,19.75
2022-09-30T13:40:50.175Z,24.45
2022-09-30T13:43:42.596Z,18.10
2022-09-30T13:46:49.484Z,18.85
2022-09-30T13:49:47.357Z,22.20
2022-09-30T13:52:35.371Z,17.27
2022-09-30T13:55:32.289Z,18.98
2022-09-30T13:59:09.874Z,15.63
2022-09-30T14:02:33.557Z,13.25
2022-09-30T14:05:37.069Z,15.25
2022-09-30T14:08:50.456Z,14.27
2022-09-30T14:12:12.380Z,17.15
2022-09-30T14:15:22.617Z,13.63
2022-09-30T14:18:29.154Z,11.35
2022-09-30T14:21:34.111Z,6.93
2022-09-30T14:24:25.741Z,16.55
2022-09-30T14:27:36.029Z,11.45
2022-09-30T14:30:26.705Z,9.68
2022-09-30T14:33:24.329Z,8.75
2022-09-30T14:36:23.041Z,11.18
2022-09-30T14:39:16.976Z,9.77
2022-09-30T14:42:02.819Z,8.82
2022-09-30T14:44:49.248Z,9.10
2022-09-30T14:47:38.533Z,9.13
2022-09-30T14:50:33.737Z,6.07
2022-09-30T14:53:33.322Z,7.95
2022-09-30T14:56:22.278Z,8.18
2022-09-30T14:59:37.084Z,9.05
2022-09-30T15:02:24.953Z,8.23
2022-09-30T15:05:14.427Z,7.18
2022-09-30T15:08:00.333Z,4.50
2022-09-30T15:10:52.002Z,4.18
2022-09-30T15:13:39.411Z,7.70
2022-09-30T15:16:31.008Z,8.10
2022-09-30T15:19:35.029Z,9.35
2022-09-30T15:22:21.664Z,7.97
2022-09-30T15:25:08.997Z,6.47
2022-09-30T15:27:54.905Z,6.43
2022-09-30T15:30:43.524Z,6.15
2022-09-30T15:33:31.863Z,6.00
2022-09-30T15:36:18.767Z,7.45
2022-09-30T15:39:06.160Z,4.55
2022-09-30T15:41:52.476Z,5.18
2022-09-30T15:44:39.083Z,6.47
2022-09-30T15:47:27.076Z,5.97
2022-09-30T15:50:35.832Z,6.68
2022-09-30T15:53:45.162Z,5.13
2022-09-30T15:56:35.060Z,3.65
2022-09-30T15:59:22.660Z,5.90
2022-09-30T16:02:11.293Z,4.35
2022-09-30T16:04:59.269Z,5.57
2022-09-30T16:07:44.963Z,3.28
2022-09-30T16:10:30.620Z,4.32
2022-09-30T16:13:16.686Z,3.95
2022-09-30T16:16:02.500Z,3.35
2022-09-30T16:18:49.877Z,4.05
2022-09-30T16:21:52.682Z,7.15
2022-09-30T16:24:42.383Z,4.50
2022-09-30T16:27:31.262Z,2.97
2022-09-30T16:30:18.942Z,4.63
2022-09-30T16:33:06.224Z,2.28
2022-09-30T16:35:51.847Z,3.88
2022-09-30T16:38:37.921Z,5.40
2022-09-30T16:41:25.249Z,5.90
2022-09-30T16:44:10.849Z,3.00
2022-09-30T16:46:56.648Z,4.22
2022-09-30T16:49:43.160Z,4.10
2022-09-30T16:52:28.815Z,4.10
2022-09-30T16:58:06.000Z,5.72
2022-09-30T17:00:52.434Z,5.63
2022-09-30T17:03:38.156Z,4.15
2022-09-30T17:06:32.119Z,6.55
2022-09-30T17:09:18.179Z,2.50
2022-09-30T17:12:03.595Z,3.00
2022-09-30T17:14:49.143Z,4.80
2022-09-30T17:17:34.670Z,3.10
2022-09-30T17:20:21.133Z,5.15
2022-09-30T17:23:07.650Z,4.25
2022-09-30T17:25:54.671Z,2.90
2022-09-30T17:28:40.522Z,1.90
2022-09-30T17:31:26.205Z,3.20
2022-09-30T17:34:11.599Z,3.25
2022-09-30T17:36:57.209Z,3.58
2022-09-30T17:39:43.102Z,3.28
2022-09-30T17:42:47.088Z,2.75
2022-09-30T17:45:33.006Z,4.78
2022-09-30T17:48:18.836Z,3.38
2022-09-30T17:51:06.077Z,2.80
2022-09-30T17:53:51.648Z,1.95
2022-09-30T17:56:38.975Z,1.90
2022-09-30T17:59:26.909Z,4.30
2022-09-30T18:02:17.613Z,3.47
2022-09-30T18:05:03.964Z,1.58
2022-09-30T18:07:49.700Z,4.65
2022-09-30T18:10:37.450Z,4.63
2022-09-30T18:13:24.739Z,2.47
2022-09-30T18:16:10.165Z,2.40
2022-09-30T18:18:56.621Z,5.88
2022-09-30T18:21:42.192Z,10.43
2022-09-30T18:24:46.341Z,12.10
2022-09-30T18:27:33.921Z,13.98
2022-09-30T18:30:21.183Z,12.27
2022-09-30T18:33:07.455Z,5.68
2022-09-30T18:35:53.178Z,11.32
2022-09-30T18:38:38.736Z,10.27
2022-09-30T18:41:25.872Z,12.95
2022-09-30T18:44:11.938Z,10.45
2022-09-30T18:46:58.561Z,20.55
2022-09-30T18:49:44.703Z,18.67
2022-09-30T18:52:30.197Z,13.60
2022-09-30T18:55:15.756Z,18.55
2022-09-30T18:58:01.153Z,22.48
2022-09-30T19:00:46.700Z,18.88
2022-09-30T19:03:33.101Z,32.78
2022-09-30T19:06:19.117Z,24.38
2022-09-30T19:09:07.951Z,31.95
2022-09-30T19:11:53.406Z,35.08
2022-09-30T19:14:38.859Z,21.80
2022-09-30T19:17:26.330Z,24.90
2022-09-30T19:20:13.991Z,19.15
2022-09-30T19:22:59.654Z,24.27
2022-09-30T19:25:45.356Z,21.77
2022-09-30T19:28:31.327Z,22.92
2022-09-30T19:31:19.965Z,16.30
2022-09-30T19:34:06.331Z,15.57
2022-09-30T19:36:56.314Z,13.20
2022-09-30T19:39:45.840Z,13.77
2022-09-30T19:42:32.526Z,18.55
2022-09-30T19:45:24.086Z,23.45
2022-09-30T19:48:10.985Z,24.90
2022-09-30T19:51:14.722Z,17.90
2022-09-30T19:54:07.616Z,16.15
2022-09-30T19:56:53.787Z,17.73
2022-09-30T19:59:39.507Z,11.63
2022-09-30T20:02:25.381Z,14.50
2022-09-30T20:05:11.191Z,18.60
2022-09-30T20:07:56.848Z,18.70
2022-09-30T20:10:42.281Z,19.55
2022-09-30T20:13:27.935Z,16.58
2022-09-30T20:16:15.288Z,14.63
2022-09-30T20:19:00.779Z,20.08
2022-09-30T20:21:50.115Z,12.98
2022-09-30T20:24:36.134Z,15.75
2022-09-30T20:27:21.671Z,13.45
2022-09-30T20:30:07.809Z,15.80
2022-09-30T20:32:53.400Z,15.95
2022-09-30T20:35:38.920Z,11.05
2022-09-30T20:38:24.986Z,16.83
2022-09-30T20:41:10.960Z,17.05
2022-09-30T20:43:56.897Z,14.40
2022-09-30T20:46:43.237Z,11.90
2022-09-30T20:49:29.833Z,14.95
2022-09-30T20:52:15.677Z,10.50
2022-09-30T20:55:00.988Z,10.15
2022-09-30T20:57:46.367Z,14.90
2022-09-30T21:00:36.614Z,15.02
2022-09-30T21:03:23.167Z,14.50
2022-09-30T21:06:12.974Z,14.15
2022-09-30T21:09:00.675Z,9.57
2022-09-30T21:11:46.270Z,10.05
2022-09-30T21:14:31.906Z,13.02
2022-09-30T21:17:17.654Z,10.90
2022-09-30T21:20:03.390Z,13.45
2022-09-30T21:22:48.980Z,11.05
2022-09-30T21:25:34.810Z,14.15
2022-09-30T21:28:22.362Z,11.40
2022-09-30T21:31:14.441Z,13.75
2022-09-30T21:34:00.248Z,12.35
2022-09-30T21:36:46.401Z,13.32
2022-09-30T21:39:32.037Z,9.95
2022-09-30T21:42:18.966Z,9.32
2022-09-30T21:45:05.462Z,11.18
2022-09-30T21:47:51.343Z,12.02
2022-09-30T21:50:37.283Z,11.77
2022-09-30T21:53:27.384Z,12.15
2022-09-30T21:56:13.043Z,13.40
2022-09-30T21:58:58.869Z,8.57
2022-09-30T22:01:45.331Z,12.10
2022-09-30T22:04:31.061Z,10.48
2022-09-30T22:07:22.519Z,11.52
2022-09-30T22:10:09.990Z,12.23
2022-09-30T22:12:56.051Z,8.73
2022-09-30T22:15:44.737Z,10.35
2022-09-30T22:18:32.183Z,9.55
2022-09-30T22:21:17.842Z,11.48
2022-09-30T22:24:05.707Z,7.05
2022-09-30T22:26:51.803Z,8.82
2022-09-30T22:29:37.576Z,3.53
2022-09-30T22:32:22.921Z,6.13
2022-09-30T22:35:28.571Z,3.63
2022-09-30T22:38:14.863Z,5.82
2022-09-30T22:41:00.437Z,2.78
2022-09-30T22:43:46.140Z,3.70
2022-09-30T22:46:36.850Z,3.08
2022-09-30T22:49:24.368Z,2.55
2022-09-30T22:52:09.888Z,2.50
2022-09-30T22:54:55.380Z,2.00
2022-09-30T22:57:41.650Z,2.67
2022-09-30T23:00:27.163Z,2.47
2022-09-30T23:03:12.554Z,6.57
2022-09-30T23:06:02.584Z,2.70
2022-09-30T23:08:48.832Z,2.42
2022-09-30T23:11:35.693Z,3.63
2022-09-30T23:14:22.715Z,4.28
2022-09-30T23:17:08.075Z,4.85
2022-09-30T23:19:53.636Z,2.13
2022-09-30T23:22:39.063Z,2.67
2022-09-30T23:25:24.532Z,3.42
2022-09-30T23:28:10.051Z,2.03
2022-09-30T23:30:57.340Z,1.85
2022-09-30T23:33:49.084Z,3.33
2022-09-30T23:36:36.996Z,2.65
2022-09-30T23:39:22.788Z,1.92
2022-09-30T23:42:08.309Z,1.55
2022-09-30T23:44:53.917Z,3.05
2022-09-30T23:47:39.388Z,2.33
2022-09-30T23:50:25.415Z,1.92
2022-09-30T23:53:11.735Z,2.13
2022-09-30T23:56:02.926Z,2.08
2022-09-30T23:58:50.425Z,4.78
